sensor_id;sensor_type;location;lat;lon;timestamp;P1;durP1;ratioP1;P2;durP2;ratioP2
317;SDS011;146;53.448;10.228;2023-06-01T00:00:50;13.63;;;12.30;;
317;SDS011;146;53.448;10.228;2023-06-01T00:03:21;12.23;;;10.60;;
317;SDS011;146;53.448;10.228;2023-06-01T00:05:48;14.73;;;11.20;;
317;SDS011;146;53.448;10.228;2023-06-01T00:08:17;10.60;;;8.80;;
317;SDS011;146;53.448;10.228;2023-06-01T00:10:44;12.70;;;10.20;;
317;SDS011;146;53.448;10.228;2023-06-01T00:13:11;10.90;;;8.80;;
317;SDS011;146;53.448;10.228;2023-06-01T00:15:37;14.73;;;10.20;;
317;SDS011;146;53.448;10.228;2023-06-01T00:18:04;11.07;;;9.83;;
317;SDS011;146;53.448;10.228;2023-06-01T00:20:33;12.50;;;9.80;;
317;SDS011;146;53.448;10.228;2023-06-01T00:23:00;11.77;;;8.30;;
317;SDS011;146;53.448;10.228;2023-06-01T00:25:30;12.33;;;8.43;;
317;SDS011;146;53.448;10.228;2023-06-01T00:27:56;10.23;;;8.63;;
317;SDS011;146;53.448;10.228;2023-06-01T00:30:23;10.30;;;9.20;;
317;SDS011;146;53.448;10.228;2023-06-01T00:32:50;12.00;;;9.80;;
317;SDS011;146;53.448;10.228;2023-06-01T00:35:17;14.47;;;9.77;;
317;SDS011;146;53.448;10.228;2023-06-01T00:37:43;12.20;;;9.17;;
317;SDS011;146;53.448;10.228;2023-06-01T00:40:11;9.13;;;8.23;;
317;SDS011;146;53.448;10.228;2023-06-01T00:42:39;13.77;;;8.70;;
317;SDS011;146;53.448;10.228;2023-06-01T00:45:06;13.30;;;8.57;;
317;SDS011;146;53.448;10.228;2023-06-01T00:47:33;13.70;;;8.93;;
317;SDS011;146;53.448;10.228;2023-06-01T00:50:06;11.77;;;9.53;;
317;SDS011;146;53.448;10.228;2023-06-01T00:52:33;16.20;;;11.30;;
317;SDS011;146;53.448;10.228;2023-06-01T00:55:01;13.20;;;10.10;;
317;SDS011;146;53.448;10.228;2023-06-01T00:57:28;11.30;;;7.90;;
317;SDS011;146;53.448;10.228;2023-06-01T00:59:57;11.73;;;8.27;;
317;SDS011;146;53.448;10.228;2023-06-01T01:02:24;19.50;;;10.43;;
317;SDS011;146;53.448;10.228;2023-06-01T01:04:51;10.83;;;8.47;;
317;SDS011;146;53.448;10.228;2023-06-01T01:07:19;10.63;;;8.17;;
317;SDS011;146;53.448;10.228;2023-06-01T01:09:53;11.30;;;8.17;;
317;SDS011;146;53.448;10.228;2023-06-01T01:12:26;12.40;;;8.20;;
317;SDS011;146;53.448;10.228;2023-06-01T01:15:01;7.03;;;6.03;;
317;SDS011;146;53.448;10.228;2023-06-01T01:17:38;7.83;;;6.90;;
317;SDS011;146;53.448;10.228;2023-06-01T01:20:10;9.33;;;6.70;;
317;SDS011;146;53.448;10.228;2023-06-01T01:22:44;7.57;;;6.50;;
317;SDS011;146;53.448;10.228;2023-06-01T01:25:36;6.93;;;6.23;;
317;SDS011;146;53.448;10.228;2023-06-01T01:28:33;9.57;;;6.87;;
317;SDS011;146;53.448;10.228;2023-06-01T01:31:06;9.97;;;7.20;;
317;SDS011;146;53.448;10.228;2023-06-01T01:33:35;9.20;;;6.67;;
317;SDS011;146;53.448;10.228;2023-06-01T01:36:03;8.37;;;5.70;;
317;SDS011;146;53.448;10.228;2023-06-01T01:38:33;10.00;;;5.90;;
317;SDS011;146;53.448;10.228;2023-06-01T01:41:00;10.77;;;6.00;;
317;SDS011;146;53.448;10.228;2023-06-01T01:43:27;8.97;;;5.17;;
317;SDS011;146;53.448;10.228;2023-06-01T01:46:00;9.63;;;5.50;;
317;SDS011;146;53.448;10.228;2023-06-01T01:48:35;8.33;;;6.07;;
317;SDS011;146;53.448;10.228;2023-06-01T01:51:07;5.90;;;5.30;;
317;SDS011;146;53.448;10.228;2023-06-01T01:53:37;6.43;;;5.17;;
317;SDS011;146;53.448;10.228;2023-06-01T01:56:05;8.50;;;5.43;;
317;SDS011;146;53.448;10.228;2023-06-01T01:58:33;7.83;;;6.20;;
317;SDS011;146;53.448;10.228;2023-06-01T02:01:02;11.47;;;6.33;;
317;SDS011;146;53.448;10.228;2023-06-01T02:03:30;11.63;;;6.20;;
317;SDS011;146;53.448;10.228;2023-06-01T02:05:57;7.70;;;6.10;;
317;SDS011;146;53.448;10.228;2023-06-01T02:08:23;8.57;;;6.80;;
317;SDS011;146;53.448;10.228;2023-06-01T02:10:50;10.40;;;7.30;;
317;SDS011;146;53.448;10.228;2023-06-01T02:13:17;8.83;;;5.53;;
317;SDS011;146;53.448;10.228;2023-06-01T02:15:44;8.10;;;5.57;;
317;SDS011;146;53.448;10.228;2023-06-01T02:18:12;6.07;;;4.50;;
317;SDS011;146;53.448;10.228;2023-06-01T02:20:42;9.80;;;5.20;;
317;SDS011;146;53.448;10.228;2023-06-01T02:23:09;9.80;;;5.17;;
317;SDS011;146;53.448;10.228;2023-06-01T02:25:36;9.00;;;6.87;;
317;SDS011;146;53.448;10.228;2023-06-01T02:28:03;7.40;;;4.93;;
317;SDS011;146;53.448;10.228;2023-06-01T02:30:32;6.90;;;4.90;;
317;SDS011;146;53.448;10.228;2023-06-01T02:32:59;7.20;;;5.20;;
317;SDS011;146;53.448;10.228;2023-06-01T02:35:27;10.50;;;5.87;;
317;SDS011;146;53.448;10.228;2023-06-01T02:37:54;8.80;;;5.53;;
317;SDS011;146;53.448;10.228;2023-06-01T02:40:22;8.90;;;6.40;;
317;SDS011;146;53.448;10.228;2023-06-01T02:42:48;5.63;;;4.70;;
317;SDS011;146;53.448;10.228;2023-06-01T02:45:15;8.00;;;5.70;;
317;SDS011;146;53.448;10.228;2023-06-01T02:47:42;8.13;;;5.40;;
317;SDS011;146;53.448;10.228;2023-06-01T02:50:10;8.97;;;5.63;;
317;SDS011;146;53.448;10.228;2023-06-01T02:52:38;6.87;;;6.23;;
317;SDS011;146;53.448;10.228;2023-06-01T02:55:05;9.20;;;6.27;;
317;SDS011;146;53.448;10.228;2023-06-01T02:57:32;7.50;;;6.73;;
317;SDS011;146;53.448;10.228;2023-06-01T02:59:59;8.90;;;6.30;;
317;SDS011;146;53.448;10.228;2023-06-01T03:02:26;10.20;;;6.13;;
317;SDS011;146;53.448;10.228;2023-06-01T03:04:52;7.43;;;4.70;;
317;SDS011;146;53.448;10.228;2023-06-01T03:07:19;6.40;;;4.73;;
317;SDS011;146;53.448;10.228;2023-06-01T03:09:47;7.30;;;4.73;;
317;SDS011;146;53.448;10.228;2023-06-01T03:12:14;7.40;;;4.17;;
317;SDS011;146;53.448;10.228;2023-06-01T03:14:41;7.60;;;4.67;;
317;SDS011;146;53.448;10.228;2023-06-01T03:17:08;8.33;;;4.17;;
317;SDS011;146;53.448;10.228;2023-06-01T03:19:35;12.67;;;5.30;;
317;SDS011;146;53.448;10.228;2023-06-01T03:22:01;7.20;;;5.13;;
317;SDS011;146;53.448;10.228;2023-06-01T03:24:28;9.27;;;6.20;;
317;SDS011;146;53.448;10.228;2023-06-01T03:26:56;8.83;;;6.60;;
317;SDS011;146;53.448;10.228;2023-06-01T03:29:23;5.43;;;4.93;;
317;SDS011;146;53.448;10.228;2023-06-01T03:31:50;14.90;;;5.83;;
317;SDS011;146;53.448;10.228;2023-06-01T03:34:17;7.77;;;5.83;;
317;SDS011;146;53.448;10.228;2023-06-01T03:36:44;9.30;;;5.17;;
317;SDS011;146;53.448;10.228;2023-06-01T03:39:13;10.77;;;6.07;;
317;SDS011;146;53.448;10.228;2023-06-01T03:41:41;9.80;;;5.53;;
317;SDS011;146;53.448;10.228;2023-06-01T03:44:10;8.17;;;5.47;;
317;SDS011;146;53.448;10.228;2023-06-01T03:46:37;9.20;;;4.93;;
317;SDS011;146;53.448;10.228;2023-06-01T03:49:03;8.27;;;6.60;;
317;SDS011;146;53.448;10.228;2023-06-01T03:51:30;8.73;;;5.93;;
317;SDS011;146;53.448;10.228;2023-06-01T03:53:58;6.20;;;4.60;;
317;SDS011;146;53.448;10.228;2023-06-01T03:56:24;8.37;;;4.87;;
317;SDS011;146;53.448;10.228;2023-06-01T03:58:52;7.10;;;4.77;;
317;SDS011;146;53.448;10.228;2023-06-01T04:01:20;11.73;;;5.10;;
317;SDS011;146;53.448;10.228;2023-06-01T04:03:47;6.40;;;4.30;;
317;SDS011;146;53.448;10.228;2023-06-01T04:06:15;8.40;;;5.00;;
317;SDS011;146;53.448;10.228;2023-06-01T04:08:43;12.87;;;5.20;;
317;SDS011;146;53.448;10.228;2023-06-01T04:11:14;7.80;;;5.40;;
317;SDS011;146;53.448;10.228;2023-06-01T04:13:41;8.33;;;5.60;;
317;SDS011;146;53.448;10.228;2023-06-01T04:16:08;6.53;;;5.87;;
317;SDS011;146;53.448;10.228;2023-06-01T04:18:36;6.93;;;6.00;;
317;SDS011;146;53.448;10.228;2023-06-01T04:21:04;6.43;;;5.73;;
317;SDS011;146;53.448;10.228;2023-06-01T04:23:31;10.47;;;6.60;;
317;SDS011;146;53.448;10.228;2023-06-01T04:25:58;8.67;;;6.83;;
317;SDS011;146;53.448;10.228;2023-06-01T04:28:27;9.97;;;5.73;;
317;SDS011;146;53.448;10.228;2023-06-01T04:30:55;8.63;;;7.40;;
317;SDS011;146;53.448;10.228;2023-06-01T04:33:21;8.50;;;5.90;;
317;SDS011;146;53.448;10.228;2023-06-01T04:35:50;6.97;;;4.60;;
317;SDS011;146;53.448;10.228;2023-06-01T04:38:18;6.77;;;6.17;;
317;SDS011;146;53.448;10.228;2023-06-01T04:40:46;6.43;;;5.80;;
317;SDS011;146;53.448;10.228;2023-06-01T04:43:13;9.30;;;5.53;;
317;SDS011;146;53.448;10.228;2023-06-01T04:45:44;8.00;;;6.20;;
317;SDS011;146;53.448;10.228;2023-06-01T04:48:11;7.70;;;6.90;;
317;SDS011;146;53.448;10.228;2023-06-01T04:50:39;16.03;;;7.30;;
317;SDS011;146;53.448;10.228;2023-06-01T04:53:07;13.70;;;7.00;;
317;SDS011;146;53.448;10.228;2023-06-01T04:55:34;10.63;;;6.30;;
317;SDS011;146;53.448;10.228;2023-06-01T04:58:01;9.40;;;6.23;;
317;SDS011;146;53.448;10.228;2023-06-01T05:00:28;8.93;;;6.13;;
317;SDS011;146;53.448;10.228;2023-06-01T05:02:55;9.40;;;6.93;;
317;SDS011;146;53.448;10.228;2023-06-01T05:05:22;12.13;;;6.00;;
317;SDS011;146;53.448;10.228;2023-06-01T05:07:49;12.40;;;6.73;;
317;SDS011;146;53.448;10.228;2023-06-01T05:10:17;10.80;;;5.90;;
317;SDS011;146;53.448;10.228;2023-06-01T05:12:44;9.40;;;6.00;;
317;SDS011;146;53.448;10.228;2023-06-01T05:15:11;10.13;;;5.83;;
317;SDS011;146;53.448;10.228;2023-06-01T05:17:38;11.73;;;5.57;;
317;SDS011;146;53.448;10.228;2023-06-01T05:20:06;10.00;;;7.10;;
317;SDS011;146;53.448;10.228;2023-06-01T05:22:36;12.17;;;6.83;;
317;SDS011;146;53.448;10.228;2023-06-01T05:25:03;8.40;;;7.00;;
317;SDS011;146;53.448;10.228;2023-06-01T05:27:32;6.73;;;5.87;;
317;SDS011;146;53.448;10.228;2023-06-01T05:29:59;6.60;;;5.80;;
317;SDS011;146;53.448;10.228;2023-06-01T05:32:26;9.07;;;5.80;;
317;SDS011;146;53.448;10.228;2023-06-01T05:34:53;9.97;;;5.97;;
317;SDS011;146;53.448;10.228;2023-06-01T05:37:20;11.20;;;6.70;;
317;SDS011;146;53.448;10.228;2023-06-01T05:39:46;10.50;;;6.30;;
317;SDS011;146;53.448;10.228;2023-06-01T05:42:13;12.17;;;6.07;;
317;SDS011;146;53.448;10.228;2023-06-01T05:44:41;8.60;;;6.03;;
317;SDS011;146;53.448;10.228;2023-06-01T05:47:08;8.20;;;5.20;;
317;SDS011;146;53.448;10.228;2023-06-01T05:49:35;10.10;;;5.27;;
317;SDS011;146;53.448;10.228;2023-06-01T05:52:03;8.03;;;5.70;;
317;SDS011;146;53.448;10.228;2023-06-01T05:54:30;7.27;;;6.03;;
317;SDS011;146;53.448;10.228;2023-06-01T05:56:57;9.17;;;6.00;;
317;SDS011;146;53.448;10.228;2023-06-01T05:59:24;7.50;;;5.80;;
317;SDS011;146;53.448;10.228;2023-06-01T06:01:52;10.03;;;5.77;;
317;SDS011;146;53.448;10.228;2023-06-01T06:04:19;9.67;;;6.10;;
317;SDS011;146;53.448;10.228;2023-06-01T06:06:46;16.67;;;8.10;;
317;SDS011;146;53.448;10.228;2023-06-01T06:09:13;10.50;;;6.53;;
317;SDS011;146;53.448;10.228;2023-06-01T06:11:41;9.00;;;5.00;;
317;SDS011;146;53.448;10.228;2023-06-01T06:14:08;8.90;;;7.00;;
317;SDS011;146;53.448;10.228;2023-06-01T06:16:36;7.43;;;6.03;;
317;SDS011;146;53.448;10.228;2023-06-01T06:19:05;7.33;;;5.70;;
317;SDS011;146;53.448;10.228;2023-06-01T06:21:32;8.30;;;5.67;;
317;SDS011;146;53.448;10.228;2023-06-01T06:23:58;14.63;;;6.33;;
317;SDS011;146;53.448;10.228;2023-06-01T06:26:25;9.60;;;5.60;;
317;SDS011;146;53.448;10.228;2023-06-01T06:28:52;7.93;;;5.43;;
317;SDS011;146;53.448;10.228;2023-06-01T06:31:20;9.63;;;5.50;;
317;SDS011;146;53.448;10.228;2023-06-01T06:33:47;7.80;;;5.90;;
317;SDS011;146;53.448;10.228;2023-06-01T06:36:15;11.80;;;5.17;;
317;SDS011;146;53.448;10.228;2023-06-01T06:38:42;5.90;;;4.80;;
317;SDS011;146;53.448;10.228;2023-06-01T06:41:09;4.93;;;4.53;;
317;SDS011;146;53.448;10.228;2023-06-01T06:43:36;5.17;;;4.63;;
317;SDS011;146;53.448;10.228;2023-06-01T06:46:03;6.67;;;5.30;;
317;SDS011;146;53.448;10.228;2023-06-01T06:48:30;9.53;;;6.27;;
317;SDS011;146;53.448;10.228;2023-06-01T06:50:57;6.90;;;6.20;;
317;SDS011;146;53.448;10.228;2023-06-01T06:53:34;8.13;;;4.90;;
317;SDS011;146;53.448;10.228;2023-06-01T06:56:01;7.20;;;5.13;;
317;SDS011;146;53.448;10.228;2023-06-01T06:58:37;5.50;;;4.53;;
317;SDS011;146;53.448;10.228;2023-06-01T07:01:04;8.63;;;4.70;;
317;SDS011;146;53.448;10.228;2023-06-01T07:03:30;9.93;;;4.50;;
317;SDS011;146;53.448;10.228;2023-06-01T07:05:57;6.17;;;3.87;;
317;SDS011;146;53.448;10.228;2023-06-01T07:08:26;6.30;;;5.10;;
317;SDS011;146;53.448;10.228;2023-06-01T07:10:57;7.07;;;4.67;;
317;SDS011;146;53.448;10.228;2023-06-01T07:13:24;9.40;;;3.97;;
317;SDS011;146;53.448;10.228;2023-06-01T07:15:54;9.97;;;4.50;;
317;SDS011;146;53.448;10.228;2023-06-01T07:18:24;6.90;;;4.37;;
317;SDS011;146;53.448;10.228;2023-06-01T07:20:54;7.73;;;4.40;;
317;SDS011;146;53.448;10.228;2023-06-01T07:23:21;6.63;;;5.10;;
317;SDS011;146;53.448;10.228;2023-06-01T07:25:48;12.93;;;6.17;;
317;SDS011;146;53.448;10.228;2023-06-01T07:28:17;6.80;;;4.13;;
317;SDS011;146;53.448;10.228;2023-06-01T07:30:44;8.10;;;5.10;;
317;SDS011;146;53.448;10.228;2023-06-01T07:33:13;7.97;;;4.80;;
317;SDS011;146;53.448;10.228;2023-06-01T07:35:40;5.03;;;4.30;;
317;SDS011;146;53.448;10.228;2023-06-01T07:38:06;4.80;;;4.30;;
317;SDS011;146;53.448;10.228;2023-06-01T07:40:37;10.03;;;4.80;;
317;SDS011;146;53.448;10.228;2023-06-01T07:43:04;6.77;;;4.40;;
317;SDS011;146;53.448;10.228;2023-06-01T07:48:16;6.00;;;4.10;;
317;SDS011;146;53.448;10.228;2023-06-01T07:50:45;7.63;;;4.77;;
317;SDS011;146;53.448;10.228;2023-06-01T07:53:20;9.43;;;5.10;;
317;SDS011;146;53.448;10.228;2023-06-01T07:55:47;5.63;;;4.00;;
317;SDS011;146;53.448;10.228;2023-06-01T07:58:18;4.70;;;3.97;;
317;SDS011;146;53.448;10.228;2023-06-01T08:00:45;7.83;;;4.00;;
317;SDS011;146;53.448;10.228;2023-06-01T08:03:16;7.00;;;4.50;;
317;SDS011;146;53.448;10.228;2023-06-01T08:05:45;6.60;;;3.83;;
317;SDS011;146;53.448;10.228;2023-06-01T08:08:15;5.10;;;3.63;;
317;SDS011;146;53.448;10.228;2023-06-01T08:10:42;8.03;;;4.60;;
317;SDS011;146;53.448;10.228;2023-06-01T08:13:09;5.50;;;4.77;;
317;SDS011;146;53.448;10.228;2023-06-01T08:15:35;6.40;;;3.77;;
317;SDS011;146;53.448;10.228;2023-06-01T08:18:04;5.27;;;3.30;;
317;SDS011;146;53.448;10.228;2023-06-01T08:20:35;5.23;;;3.40;;
317;SDS011;146;53.448;10.228;2023-06-01T08:23:08;7.17;;;2.93;;
317;SDS011;146;53.448;10.228;2023-06-01T08:25:35;5.60;;;3.40;;
317;SDS011;146;53.448;10.228;2023-06-01T08:28:05;5.77;;;3.13;;
317;SDS011;146;53.448;10.228;2023-06-01T08:30:35;16.00;;;4.93;;
317;SDS011;146;53.448;10.228;2023-06-01T08:33:08;7.20;;;3.63;;
317;SDS011;146;53.448;10.228;2023-06-01T08:35:36;5.93;;;2.73;;
317;SDS011;146;53.448;10.228;2023-06-01T08:38:06;9.33;;;3.47;;
317;SDS011;146;53.448;10.228;2023-06-01T08:40:33;3.57;;;2.43;;
317;SDS011;146;53.448;10.228;2023-06-01T08:43:04;5.10;;;3.67;;
317;SDS011;146;53.448;10.228;2023-06-01T08:45:35;3.27;;;2.97;;
317;SDS011;146;53.448;10.228;2023-06-01T08:48:04;4.37;;;3.20;;
317;SDS011;146;53.448;10.228;2023-06-01T08:50:41;5.87;;;3.13;;
317;SDS011;146;53.448;10.228;2023-06-01T08:53:14;10.90;;;3.03;;
317;SDS011;146;53.448;10.228;2023-06-01T08:55:43;3.90;;;2.93;;
317;SDS011;146;53.448;10.228;2023-06-01T08:58:14;5.17;;;3.83;;
317;SDS011;146;53.448;10.228;2023-06-01T09:00:42;3.80;;;3.50;;
317;SDS011;146;53.448;10.228;2023-06-01T09:03:12;8.83;;;3.83;;
317;SDS011;146;53.448;10.228;2023-06-01T09:05:46;5.90;;;2.97;;
317;SDS011;146;53.448;10.228;2023-06-01T09:08:13;4.80;;;2.92;;
317;SDS011;146;53.448;10.228;2023-06-01T09:10:41;11.13;;;2.90;;
317;SDS011;146;53.448;10.228;2023-06-01T09:13:10;6.87;;;3.53;;
317;SDS011;146;53.448;10.228;2023-06-01T09:15:59;4.83;;;3.20;;
317;SDS011;146;53.448;10.228;2023-06-01T09:18:26;6.53;;;3.23;;
317;SDS011;146;53.448;10.228;2023-06-01T09:23:44;5.27;;;3.37;;
317;SDS011;146;53.448;10.228;2023-06-01T09:26:18;3.13;;;2.70;;
317;SDS011;146;53.448;10.228;2023-06-01T09:28:59;3.43;;;2.30;;
317;SDS011;146;53.448;10.228;2023-06-01T09:34:16;4.47;;;2.93;;
317;SDS011;146;53.448;10.228;2023-06-01T09:36:50;3.30;;;2.57;;
317;SDS011;146;53.448;10.228;2023-06-01T09:39:20;3.03;;;2.73;;
317;SDS011;146;53.448;10.228;2023-06-01T09:41:50;5.00;;;2.70;;
317;SDS011;146;53.448;10.228;2023-06-01T09:44:22;6.27;;;2.80;;
317;SDS011;146;53.448;10.228;2023-06-01T09:46:53;6.50;;;2.57;;
317;SDS011;146;53.448;10.228;2023-06-01T09:49:22;3.87;;;2.40;;
317;SDS011;146;53.448;10.228;2023-06-01T09:52:07;3.20;;;2.90;;
317;SDS011;146;53.448;10.228;2023-06-01T09:54:47;6.63;;;3.60;;
317;SDS011;146;53.448;10.228;2023-06-01T09:57:21;4.00;;;2.60;;
317;SDS011;146;53.448;10.228;2023-06-01T09:59:49;4.63;;;3.13;;
317;SDS011;146;53.448;10.228;2023-06-01T10:02:17;7.33;;;3.30;;
317;SDS011;146;53.448;10.228;2023-06-01T10:04:49;6.30;;;2.40;;
317;SDS011;146;53.448;10.228;2023-06-01T10:07:22;4.40;;;3.47;;
317;SDS011;146;53.448;10.228;2023-06-01T10:09:53;4.47;;;2.90;;
317;SDS011;146;53.448;10.228;2023-06-01T10:12:24;4.20;;;2.73;;
317;SDS011;146;53.448;10.228;2023-06-01T10:14:55;6.23;;;2.97;;
317;SDS011;146;53.448;10.228;2023-06-01T10:17:22;3.13;;;2.50;;
317;SDS011;146;53.448;10.228;2023-06-01T10:19:55;4.83;;;2.80;;
317;SDS011;146;53.448;10.228;2023-06-01T10:22:23;4.13;;;2.93;;
317;SDS011;146;53.448;10.228;2023-06-01T10:24:53;5.63;;;2.93;;
317;SDS011;146;53.448;10.228;2023-06-01T10:27:22;7.23;;;3.03;;
317;SDS011;146;53.448;10.228;2023-06-01T10:29:56;4.83;;;3.73;;
317;SDS011;146;53.448;10.228;2023-06-01T10:32:41;6.57;;;3.50;;
317;SDS011;146;53.448;10.228;2023-06-01T10:35:32;4.37;;;3.97;;
317;SDS011;146;53.448;10.228;2023-06-01T10:41:40;3.77;;;3.10;;
317;SDS011;146;53.448;10.228;2023-06-01T10:44:07;5.90;;;2.90;;
317;SDS011;146;53.448;10.228;2023-06-01T10:46:34;5.20;;;3.37;;
317;SDS011;146;53.448;10.228;2023-06-01T10:49:13;6.30;;;2.97;;
317;SDS011;146;53.448;10.228;2023-06-01T10:51:40;9.63;;;3.30;;
317;SDS011;146;53.448;10.228;2023-06-01T11:02:45;4.20;;;3.80;;
317;SDS011;146;53.448;10.228;2023-06-01T11:11:19;4.90;;;3.57;;
317;SDS011;146;53.448;10.228;2023-06-01T11:16:41;3.40;;;3.10;;
317;SDS011;146;53.448;10.228;2023-06-01T11:19:09;4.77;;;3.30;;
317;SDS011;146;53.448;10.228;2023-06-01T11:21:43;8.20;;;3.30;;
317;SDS011;146;53.448;10.228;2023-06-01T11:24:11;7.73;;;3.10;;
317;SDS011;146;53.448;10.228;2023-06-01T11:26:41;2.97;;;2.67;;
317;SDS011;146;53.448;10.228;2023-06-01T11:29:13;7.13;;;3.33;;
317;SDS011;146;53.448;10.228;2023-06-01T11:31:42;7.90;;;2.80;;
317;SDS011;146;53.448;10.228;2023-06-01T11:34:11;5.53;;;2.90;;
317;SDS011;146;53.448;10.228;2023-06-01T11:36:40;10.60;;;3.27;;
317;SDS011;146;53.448;10.228;2023-06-01T11:39:23;8.93;;;4.17;;
317;SDS011;146;53.448;10.228;2023-06-01T11:42:04;3.27;;;2.33;;
317;SDS011;146;53.448;10.228;2023-06-01T11:44:36;6.17;;;3.20;;
317;SDS011;146;53.448;10.228;2023-06-01T11:47:04;4.77;;;2.80;;
317;SDS011;146;53.448;10.228;2023-06-01T11:49:41;6.90;;;3.00;;
317;SDS011;146;53.448;10.228;2023-06-01T11:52:10;6.40;;;3.00;;
317;SDS011;146;53.448;10.228;2023-06-01T11:54:40;9.20;;;4.13;;
317;SDS011;146;53.448;10.228;2023-06-01T11:57:09;7.40;;;3.53;;
317;SDS011;146;53.448;10.228;2023-06-01T11:59:49;4.77;;;3.37;;
317;SDS011;146;53.448;10.228;2023-06-01T12:02:19;5.83;;;3.47;;
317;SDS011;146;53.448;10.228;2023-06-01T12:04:56;4.27;;;2.60;;
317;SDS011;146;53.448;10.228;2023-06-01T12:07:23;5.30;;;3.10;;
317;SDS011;146;53.448;10.228;2023-06-01T12:09:50;6.13;;;3.30;;
317;SDS011;146;53.448;10.228;2023-06-01T12:12:21;4.63;;;3.13;;
317;SDS011;146;53.448;10.228;2023-06-01T12:15:05;6.17;;;3.23;;
317;SDS011;146;53.448;10.228;2023-06-01T12:17:46;5.23;;;2.80;;
317;SDS011;146;53.448;10.228;2023-06-01T12:20:27;7.37;;;4.10;;
317;SDS011;146;53.448;10.228;2023-06-01T12:22:55;4.07;;;2.53;;
317;SDS011;146;53.448;10.228;2023-06-01T12:25:22;7.97;;;3.17;;
317;SDS011;146;53.448;10.228;2023-06-01T12:28:10;3.53;;;2.60;;
317;SDS011;146;53.448;10.228;2023-06-01T12:30:40;6.97;;;2.47;;
317;SDS011;146;53.448;10.228;2023-06-01T12:33:07;8.83;;;3.23;;
317;SDS011;146;53.448;10.228;2023-06-01T12:35:46;2.80;;;2.20;;
317;SDS011;146;53.448;10.228;2023-06-01T12:38:16;7.27;;;2.63;;
317;SDS011;146;53.448;10.228;2023-06-01T12:40:43;4.23;;;2.60;;
317;SDS011;146;53.448;10.228;2023-06-01T12:43:18;8.10;;;2.60;;
317;SDS011;146;53.448;10.228;2023-06-01T12:45:45;8.03;;;3.73;;
317;SDS011;146;53.448;10.228;2023-06-01T12:48:30;3.10;;;2.50;;
317;SDS011;146;53.448;10.228;2023-06-01T12:51:03;7.47;;;2.47;;
317;SDS011;146;53.448;10.228;2023-06-01T12:53:31;4.00;;;2.30;;
317;SDS011;146;53.448;10.228;2023-06-01T12:56:00;5.00;;;2.67;;
317;SDS011;146;53.448;10.228;2023-06-01T12:58:29;3.03;;;2.60;;
317;SDS011;146;53.448;10.228;2023-06-01T13:00:56;3.23;;;2.03;;
317;SDS011;146;53.448;10.228;2023-06-01T13:03:23;2.60;;;2.03;;
317;SDS011;146;53.448;10.228;2023-06-01T13:05:50;5.10;;;2.63;;
317;SDS011;146;53.448;10.228;2023-06-01T13:08:17;6.00;;;2.20;;
317;SDS011;146;53.448;10.228;2023-06-01T13:10:44;7.20;;;2.60;;
317;SDS011;146;53.448;10.228;2023-06-01T13:13:11;5.83;;;2.63;;
317;SDS011;146;53.448;10.228;2023-06-01T13:15:40;8.03;;;3.53;;
317;SDS011;146;53.448;10.228;2023-06-01T13:18:10;6.13;;;2.10;;
317;SDS011;146;53.448;10.228;2023-06-01T13:20:38;4.20;;;2.17;;
317;SDS011;146;53.448;10.228;2023-06-01T13:23:08;3.17;;;2.30;;
317;SDS011;146;53.448;10.228;2023-06-01T13:25:39;4.53;;;2.80;;
317;SDS011;146;53.448;10.228;2023-06-01T13:28:10;8.00;;;2.90;;
317;SDS011;146;53.448;10.228;2023-06-01T13:30:44;6.27;;;2.13;;
317;SDS011;146;53.448;10.228;2023-06-01T13:33:14;5.90;;;2.93;;
317;SDS011;146;53.448;10.228;2023-06-01T13:35:44;7.30;;;1.87;;
317;SDS011;146;53.448;10.228;2023-06-01T13:38:15;6.20;;;2.40;;
317;SDS011;146;53.448;10.228;2023-06-01T13:40:42;4.60;;;2.40;;
317;SDS011;146;53.448;10.228;2023-06-01T13:43:09;7.63;;;2.30;;
317;SDS011;146;53.448;10.228;2023-06-01T13:45:41;4.50;;;2.67;;
317;SDS011;146;53.448;10.228;2023-06-01T13:48:13;8.77;;;2.67;;
317;SDS011;146;53.448;10.228;2023-06-01T13:50:43;9.53;;;2.27;;
317;SDS011;146;53.448;10.228;2023-06-01T13:53:10;4.60;;;2.70;;
317;SDS011;146;53.448;10.228;2023-06-01T13:55:37;3.47;;;1.90;;
317;SDS011;146;53.448;10.228;2023-06-01T13:58:06;4.90;;;2.73;;
317;SDS011;146;53.448;10.228;2023-06-01T14:00:33;3.93;;;2.10;;
317;SDS011;146;53.448;10.228;2023-06-01T14:03:01;10.23;;;2.83;;
317;SDS011;146;53.448;10.228;2023-06-01T14:05:29;21.37;;;2.60;;
317;SDS011;146;53.448;10.228;2023-06-01T14:07:56;5.00;;;2.33;;
317;SDS011;146;53.448;10.228;2023-06-01T14:10:22;3.43;;;2.47;;
317;SDS011;146;53.448;10.228;2023-06-01T14:12:49;3.30;;;2.23;;
317;SDS011;146;53.448;10.228;2023-06-01T14:15:19;8.90;;;2.47;;
317;SDS011;146;53.448;10.228;2023-06-01T14:17:46;4.10;;;2.47;;
317;SDS011;146;53.448;10.228;2023-06-01T14:20:12;7.03;;;2.33;;
317;SDS011;146;53.448;10.228;2023-06-01T14:22:43;6.80;;;2.87;;
317;SDS011;146;53.448;10.228;2023-06-01T14:25:10;7.00;;;2.10;;
317;SDS011;146;53.448;10.228;2023-06-01T14:27:38;5.80;;;3.03;;
317;SDS011;146;53.448;10.228;2023-06-01T14:30:06;5.50;;;2.30;;
317;SDS011;146;53.448;10.228;2023-06-01T14:32:33;4.80;;;2.10;;
317;SDS011;146;53.448;10.228;2023-06-01T14:35:00;6.30;;;2.50;;
317;SDS011;146;53.448;10.228;2023-06-01T14:37:29;2.50;;;2.03;;
317;SDS011;146;53.448;10.228;2023-06-01T14:40:01;5.20;;;2.50;;
317;SDS011;146;53.448;10.228;2023-06-01T14:42:34;6.50;;;2.70;;
317;SDS011;146;53.448;10.228;2023-06-01T14:45:03;6.33;;;2.57;;
317;SDS011;146;53.448;10.228;2023-06-01T14:47:30;5.83;;;3.13;;
317;SDS011;146;53.448;10.228;2023-06-01T14:50:00;3.17;;;2.07;;
317;SDS011;146;53.448;10.228;2023-06-01T14:52:28;7.83;;;2.53;;
317;SDS011;146;53.448;10.228;2023-06-01T14:54:59;11.73;;;2.57;;
317;SDS011;146;53.448;10.228;2023-06-01T14:57:28;7.57;;;2.30;;
317;SDS011;146;53.448;10.228;2023-06-01T15:00:01;8.47;;;2.47;;
317;SDS011;146;53.448;10.228;2023-06-01T15:02:30;3.90;;;2.40;;
317;SDS011;146;53.448;10.228;2023-06-01T15:04:56;7.17;;;2.60;;
317;SDS011;146;53.448;10.228;2023-06-01T15:07:23;4.87;;;2.30;;
317;SDS011;146;53.448;10.228;2023-06-01T15:09:50;7.07;;;2.43;;
317;SDS011;146;53.448;10.228;2023-06-01T15:12:21;7.57;;;2.83;;
317;SDS011;146;53.448;10.228;2023-06-01T15:14:48;9.07;;;3.00;;
317;SDS011;146;53.448;10.228;2023-06-01T15:17:22;6.70;;;2.50;;
317;SDS011;146;53.448;10.228;2023-06-01T15:19:49;5.80;;;2.67;;
317;SDS011;146;53.448;10.228;2023-06-01T15:22:25;7.60;;;2.30;;
317;SDS011;146;53.448;10.228;2023-06-01T15:24:52;8.40;;;2.23;;
317;SDS011;146;53.448;10.228;2023-06-01T15:27:23;4.50;;;2.17;;
317;SDS011;146;53.448;10.228;2023-06-01T15:29:50;4.57;;;2.20;;
317;SDS011;146;53.448;10.228;2023-06-01T15:32:16;8.27;;;2.90;;
317;SDS011;146;53.448;10.228;2023-06-01T15:34:55;5.27;;;2.33;;
317;SDS011;146;53.448;10.228;2023-06-01T15:37:25;3.70;;;1.97;;
317;SDS011;146;53.448;10.228;2023-06-01T15:39:55;10.53;;;2.93;;
317;SDS011;146;53.448;10.228;2023-06-01T15:42:23;8.10;;;2.73;;
317;SDS011;146;53.448;10.228;2023-06-01T15:44:53;5.13;;;2.33;;
317;SDS011;146;53.448;10.228;2023-06-01T15:47:22;6.93;;;2.70;;
317;SDS011;146;53.448;10.228;2023-06-01T15:49:55;7.43;;;3.13;;
317;SDS011;146;53.448;10.228;2023-06-01T15:52:22;6.73;;;3.00;;
317;SDS011;146;53.448;10.228;2023-06-01T15:54:49;8.17;;;2.87;;
317;SDS011;146;53.448;10.228;2023-06-01T15:57:18;6.40;;;2.20;;
317;SDS011;146;53.448;10.228;2023-06-01T15:59:55;11.73;;;2.40;;
317;SDS011;146;53.448;10.228;2023-06-01T16:02:22;4.33;;;2.63;;
317;SDS011;146;53.448;10.228;2023-06-01T16:04:49;9.77;;;2.50;;
317;SDS011;146;53.448;10.228;2023-06-01T16:07:28;9.70;;;3.47;;
317;SDS011;146;53.448;10.228;2023-06-01T16:09:58;7.90;;;3.00;;